sensor_id;sensor_type;location;lat;lon;timestamp;P1;durP1;ratioP1;P2;durP2;ratioP2
61702;SDS011;47622;47.726;3.298;2023-06-22T00:01:27;11.40;;;6.45;;
61702;SDS011;47622;47.726;3.298;2023-06-22T00:03:53;12.20;;;6.63;;
61702;SDS011;47622;47.726;3.298;2023-06-22T00:06:18;8.65;;;6.32;;
61702;SDS011;47622;47.726;3.298;2023-06-22T00:08:44;8.85;;;5.95;;
61702;SDS011;47622;47.726;3.298;2023-06-22T00:11:09;9.02;;;6.13;;
61702;SDS011;47622;47.726;3.298;2023-06-22T00:13:35;8.40;;;6.45;;
61702;SDS011;47622;47.726;3.298;2023-06-22T00:16:01;9.43;;;6.18;;
61702;SDS011;47622;47.726;3.298;2023-06-22T00:18:26;8.25;;;6.20;;
61702;SDS011;47622;47.726;3.298;2023-06-22T00:20:56;10.93;;;5.95;;
61702;SDS011;47622;47.726;3.298;2023-06-22T00:23:24;11.75;;;6.00;;
61702;SDS011;47622;47.726;3.298;2023-06-22T00:25:50;7.72;;;6.00;;
61702;SDS011;47622;47.726;3.298;2023-06-22T00:28:17;9.98;;;6.80;;
61702;SDS011;47622;47.726;3.298;2023-06-22T00:30:42;10.32;;;5.80;;
61702;SDS011;47622;47.726;3.298;2023-06-22T00:33:08;9.40;;;5.95;;
61702;SDS011;47622;47.726;3.298;2023-06-22T00:35:35;10.98;;;5.60;;
61702;SDS011;47622;47.726;3.298;2023-06-22T00:38:00;9.77;;;6.32;;
61702;SDS011;47622;47.726;3.298;2023-06-22T00:40:27;10.70;;;6.30;;
61702;SDS011;47622;47.726;3.298;2023-06-22T00:42:55;8.25;;;6.00;;
61702;SDS011;47622;47.726;3.298;2023-06-22T00:45:22;10.70;;;6.47;;
61702;SDS011;47622;47.726;3.298;2023-06-22T00:47:55;8.02;;;6.57;;
61702;SDS011;47622;47.726;3.298;2023-06-22T00:50:22;8.95;;;6.32;;
61702;SDS011;47622;47.726;3.298;2023-06-22T00:52:56;8.25;;;6.05;;
61702;SDS011;47622;47.726;3.298;2023-06-22T00:55:23;10.77;;;6.35;;
61702;SDS011;47622;47.726;3.298;2023-06-22T00:57:51;6.88;;;5.95;;
61702;SDS011;47622;47.726;3.298;2023-06-22T01:00:22;6.75;;;5.82;;
61702;SDS011;47622;47.726;3.298;2023-06-22T01:02:50;8.63;;;5.72;;
61702;SDS011;47622;47.726;3.298;2023-06-22T01:05:21;8.35;;;5.97;;
61702;SDS011;47622;47.726;3.298;2023-06-22T01:08:23;10.60;;;6.30;;
61702;SDS011;47622;47.726;3.298;2023-06-22T01:10:50;9.88;;;5.97;;
61702;SDS011;47622;47.726;3.298;2023-06-22T01:13:41;8.93;;;5.78;;
61702;SDS011;47622;47.726;3.298;2023-06-22T01:19:01;7.10;;;5.45;;
61702;SDS011;47622;47.726;3.298;2023-06-22T01:21:39;8.30;;;5.75;;
61702;SDS011;47622;47.726;3.298;2023-06-22T01:24:22;15.77;;;7.28;;
61702;SDS011;47622;47.726;3.298;2023-06-22T01:29:23;7.95;;;5.30;;
61702;SDS011;47622;47.726;3.298;2023-06-22T01:31:50;8.07;;;6.13;;
61702;SDS011;47622;47.726;3.298;2023-06-22T01:34:17;9.85;;;6.22;;
61702;SDS011;47622;47.726;3.298;2023-06-22T01:36:43;10.20;;;5.47;;
61702;SDS011;47622;47.726;3.298;2023-06-22T01:39:10;10.45;;;5.63;;
61702;SDS011;47622;47.726;3.298;2023-06-22T01:41:38;9.02;;;5.53;;
61702;SDS011;47622;47.726;3.298;2023-06-22T01:44:07;10.15;;;6.10;;
61702;SDS011;47622;47.726;3.298;2023-06-22T01:46:36;13.85;;;6.60;;
61702;SDS011;47622;47.726;3.298;2023-06-22T01:49:04;9.15;;;6.43;;
61702;SDS011;47622;47.726;3.298;2023-06-22T01:51:31;8.68;;;5.93;;
61702;SDS011;47622;47.726;3.298;2023-06-22T01:53:57;9.32;;;6.03;;
61702;SDS011;47622;47.726;3.298;2023-06-22T01:56:22;9.00;;;6.40;;
61702;SDS011;47622;47.726;3.298;2023-06-22T02:01:48;8.48;;;6.00;;
61702;SDS011;47622;47.726;3.298;2023-06-22T02:04:21;8.90;;;6.25;;
61702;SDS011;47622;47.726;3.298;2023-06-22T02:06:51;11.73;;;6.47;;
61702;SDS011;47622;47.726;3.298;2023-06-22T02:09:22;7.72;;;5.40;;
61702;SDS011;47622;47.726;3.298;2023-06-22T02:11:50;6.60;;;5.32;;
61702;SDS011;47622;47.726;3.298;2023-06-22T02:14:20;6.43;;;5.05;;
61702;SDS011;47622;47.726;3.298;2023-06-22T02:16:49;10.25;;;5.32;;
61702;SDS011;47622;47.726;3.298;2023-06-22T02:19:16;6.28;;;5.00;;
61702;SDS011;47622;47.726;3.298;2023-06-22T02:21:44;5.97;;;4.70;;
61702;SDS011;47622;47.726;3.298;2023-06-22T02:24:10;8.20;;;4.40;;
61702;SDS011;47622;47.726;3.298;2023-06-22T02:26:35;5.00;;;3.90;;
61702;SDS011;47622;47.726;3.298;2023-06-22T02:29:03;4.53;;;3.80;;
61702;SDS011;47622;47.726;3.298;2023-06-22T02:31:29;5.13;;;3.72;;
61702;SDS011;47622;47.726;3.298;2023-06-22T02:33:58;5.38;;;4.88;;
61702;SDS011;47622;47.726;3.298;2023-06-22T02:36:24;4.68;;;4.20;;
61702;SDS011;47622;47.726;3.298;2023-06-22T02:38:51;5.72;;;4.82;;
61702;SDS011;47622;47.726;3.298;2023-06-22T02:41:17;7.22;;;4.78;;
61702;SDS011;47622;47.726;3.298;2023-06-22T02:43:46;7.47;;;4.68;;
61702;SDS011;47622;47.726;3.298;2023-06-22T02:46:12;5.18;;;4.50;;
61702;SDS011;47622;47.726;3.298;2023-06-22T02:48:39;5.85;;;5.18;;
61702;SDS011;47622;47.726;3.298;2023-06-22T02:51:05;8.05;;;4.90;;
61702;SDS011;47622;47.726;3.298;2023-06-22T02:53:31;9.13;;;4.95;;
61702;SDS011;47622;47.726;3.298;2023-06-22T02:55:57;6.78;;;5.32;;
61702;SDS011;47622;47.726;3.298;2023-06-22T02:58:23;6.50;;;5.28;;
61702;SDS011;47622;47.726;3.298;2023-06-22T03:00:50;7.35;;;5.50;;
61702;SDS011;47622;47.726;3.298;2023-06-22T03:03:18;6.63;;;5.30;;
61702;SDS011;47622;47.726;3.298;2023-06-22T03:05:44;7.43;;;5.63;;
61702;SDS011;47622;47.726;3.298;2023-06-22T03:08:10;7.70;;;5.45;;
61702;SDS011;47622;47.726;3.298;2023-06-22T03:10:36;10.43;;;6.07;;
61702;SDS011;47622;47.726;3.298;2023-06-22T03:13:01;8.88;;;5.97;;
61702;SDS011;47622;47.726;3.298;2023-06-22T03:15:27;9.85;;;6.18;;
61702;SDS011;47622;47.726;3.298;2023-06-22T03:17:54;9.60;;;6.30;;
61702;SDS011;47622;47.726;3.298;2023-06-22T03:20:20;9.95;;;5.80;;
61702;SDS011;47622;47.726;3.298;2023-06-22T03:22:46;7.55;;;5.93;;
61702;SDS011;47622;47.726;3.298;2023-06-22T03:25:13;10.10;;;6.15;;
61702;SDS011;47622;47.726;3.298;2023-06-22T03:27:40;7.03;;;6.22;;
61702;SDS011;47622;47.726;3.298;2023-06-22T03:30:07;8.82;;;6.63;;
61702;SDS011;47622;47.726;3.298;2023-06-22T03:32:34;7.22;;;6.38;;
61702;SDS011;47622;47.726;3.298;2023-06-22T03:35:00;7.20;;;6.10;;
61702;SDS011;47622;47.726;3.298;2023-06-22T03:37:26;9.68;;;6.38;;
61702;SDS011;47622;47.726;3.298;2023-06-22T03:39:53;9.85;;;7.40;;
61702;SDS011;47622;47.726;3.298;2023-06-22T03:42:18;12.27;;;6.90;;
61702;SDS011;47622;47.726;3.298;2023-06-22T03:44:44;10.38;;;7.00;;
61702;SDS011;47622;47.726;3.298;2023-06-22T03:47:10;11.07;;;6.95;;
61702;SDS011;47622;47.726;3.298;2023-06-22T03:49:35;14.02;;;7.90;;
61702;SDS011;47622;47.726;3.298;2023-06-22T03:52:01;11.13;;;7.20;;
61702;SDS011;47622;47.726;3.298;2023-06-22T03:54:31;9.18;;;7.72;;
61702;SDS011;47622;47.726;3.298;2023-06-22T03:56:57;11.77;;;8.23;;
61702;SDS011;47622;47.726;3.298;2023-06-22T03:59:23;12.80;;;8.18;;
61702;SDS011;47622;47.726;3.298;2023-06-22T04:01:49;11.45;;;8.57;;
61702;SDS011;47622;47.726;3.298;2023-06-22T04:04:15;9.43;;;7.97;;
61702;SDS011;47622;47.726;3.298;2023-06-22T04:06:44;13.85;;;7.32;;
61702;SDS011;47622;47.726;3.298;2023-06-22T04:09:09;11.30;;;8.23;;
61702;SDS011;47622;47.726;3.298;2023-06-22T04:11:35;10.10;;;7.60;;
61702;SDS011;47622;47.726;3.298;2023-06-22T04:14:01;12.38;;;8.40;;
61702;SDS011;47622;47.726;3.298;2023-06-22T04:16:26;11.90;;;8.32;;
61702;SDS011;47622;47.726;3.298;2023-06-22T04:18:52;11.52;;;8.40;;
61702;SDS011;47622;47.726;3.298;2023-06-22T04:21:18;17.00;;;9.80;;
61702;SDS011;47622;47.726;3.298;2023-06-22T04:23:45;13.15;;;8.98;;
61702;SDS011;47622;47.726;3.298;2023-06-22T04:26:11;10.30;;;8.43;;
61702;SDS011;47622;47.726;3.298;2023-06-22T04:28:37;13.80;;;9.95;;
61702;SDS011;47622;47.726;3.298;2023-06-22T04:31:03;13.82;;;10.32;;
61702;SDS011;47622;47.726;3.298;2023-06-22T04:33:29;14.55;;;9.90;;
61702;SDS011;47622;47.726;3.298;2023-06-22T04:35:55;14.88;;;10.00;;
61702;SDS011;47622;47.726;3.298;2023-06-22T04:38:26;14.02;;;9.27;;
61702;SDS011;47622;47.726;3.298;2023-06-22T04:40:52;14.82;;;7.70;;
61702;SDS011;47622;47.726;3.298;2023-06-22T04:43:18;14.25;;;6.13;;
61702;SDS011;47622;47.726;3.298;2023-06-22T04:45:44;5.80;;;3.63;;
61702;SDS011;47622;47.726;3.298;2023-06-22T04:48:10;7.90;;;4.10;;
61702;SDS011;47622;47.726;3.298;2023-06-22T04:50:41;7.75;;;2.80;;
61702;SDS011;47622;47.726;3.298;2023-06-22T04:53:07;6.35;;;3.50;;
61702;SDS011;47622;47.726;3.298;2023-06-22T04:55:34;15.68;;;4.10;;
61702;SDS011;47622;47.726;3.298;2023-06-22T04:58:03;8.05;;;3.75;;
61702;SDS011;47622;47.726;3.298;2023-06-22T05:00:30;6.53;;;3.03;;
61702;SDS011;47622;47.726;3.298;2023-06-22T05:02:56;5.28;;;2.90;;
61702;SDS011;47622;47.726;3.298;2023-06-22T05:05:24;3.75;;;2.33;;
61702;SDS011;47622;47.726;3.298;2023-06-22T05:07:50;6.13;;;2.70;;
61702;SDS011;47622;47.726;3.298;2023-06-22T05:10:20;8.30;;;2.60;;
61702;SDS011;47622;47.726;3.298;2023-06-22T05:12:47;10.75;;;2.78;;
61702;SDS011;47622;47.726;3.298;2023-06-22T05:15:13;3.97;;;2.60;;
61702;SDS011;47622;47.726;3.298;2023-06-22T05:17:40;6.10;;;3.05;;
61702;SDS011;47622;47.726;3.298;2023-06-22T05:20:11;4.28;;;2.50;;
61702;SDS011;47622;47.726;3.298;2023-06-22T05:22:38;7.30;;;2.53;;
61702;SDS011;47622;47.726;3.298;2023-06-22T05:25:08;6.53;;;3.22;;
61702;SDS011;47622;47.726;3.298;2023-06-22T05:27:35;5.88;;;2.90;;
61702;SDS011;47622;47.726;3.298;2023-06-22T05:30:07;5.13;;;2.60;;
61702;SDS011;47622;47.726;3.298;2023-06-22T05:32:34;3.78;;;2.75;;
61702;SDS011;47622;47.726;3.298;2023-06-22T05:35:01;5.13;;;2.65;;
61702;SDS011;47622;47.726;3.298;2023-06-22T05:37:28;4.05;;;2.45;;
61702;SDS011;47622;47.726;3.298;2023-06-22T05:39:54;4.57;;;2.60;;
61702;SDS011;47622;47.726;3.298;2023-06-22T05:42:20;4.65;;;2.50;;
61702;SDS011;47622;47.726;3.298;2023-06-22T05:44:46;5.25;;;3.45;;
61702;SDS011;47622;47.726;3.298;2023-06-22T05:47:12;4.57;;;2.60;;
61702;SDS011;47622;47.726;3.298;2023-06-22T05:49:39;2.55;;;2.35;;
61702;SDS011;47622;47.726;3.298;2023-06-22T05:52:06;4.05;;;2.05;;
61702;SDS011;47622;47.726;3.298;2023-06-22T05:54:32;3.55;;;2.00;;
61702;SDS011;47622;47.726;3.298;2023-06-22T05:56:57;3.38;;;2.03;;
61702;SDS011;47622;47.726;3.298;2023-06-22T05:59:23;2.85;;;1.92;;
61702;SDS011;47622;47.726;3.298;2023-06-22T06:01:48;2.47;;;2.13;;
61702;SDS011;47622;47.726;3.298;2023-06-22T06:04:18;1.98;;;1.70;;
61702;SDS011;47622;47.726;3.298;2023-06-22T06:06:44;3.03;;;2.03;;
61702;SDS011;47622;47.726;3.298;2023-06-22T06:09:10;2.72;;;1.65;;
61702;SDS011;47622;47.726;3.298;2023-06-22T06:11:36;1.88;;;1.70;;
61702;SDS011;47622;47.726;3.298;2023-06-22T06:14:02;2.67;;;1.65;;
61702;SDS011;47622;47.726;3.298;2023-06-22T06:16:28;3.58;;;1.70;;
61702;SDS011;47622;47.726;3.298;2023-06-22T06:18:54;3.72;;;1.88;;
61702;SDS011;47622;47.726;3.298;2023-06-22T06:21:21;2.03;;;1.83;;
61702;SDS011;47622;47.726;3.298;2023-06-22T06:23:47;2.08;;;1.70;;
61702;SDS011;47622;47.726;3.298;2023-06-22T06:26:13;3.00;;;1.48;;
61702;SDS011;47622;47.726;3.298;2023-06-22T06:28:41;2.83;;;1.60;;
61702;SDS011;47622;47.726;3.298;2023-06-22T06:31:07;1.58;;;1.40;;
61702;SDS011;47622;47.726;3.298;2023-06-22T06:33:33;2.15;;;1.45;;
61702;SDS011;47622;47.726;3.298;2023-06-22T06:35:59;1.48;;;1.27;;
61702;SDS011;47622;47.726;3.298;2023-06-22T06:38:27;2.28;;;1.70;;
61702;SDS011;47622;47.726;3.298;2023-06-22T06:40:53;1.83;;;1.30;;
61702;SDS011;47622;47.726;3.298;2023-06-22T06:43:18;2.72;;;1.40;;
61702;SDS011;47622;47.726;3.298;2023-06-22T06:45:44;2.75;;;1.63;;
61702;SDS011;47622;47.726;3.298;2023-06-22T06:48:09;2.42;;;1.60;;
61702;SDS011;47622;47.726;3.298;2023-06-22T06:50:35;1.70;;;1.40;;
61702;SDS011;47622;47.726;3.298;2023-06-22T06:53:01;3.90;;;1.70;;
61702;SDS011;47622;47.726;3.298;2023-06-22T06:55:26;2.95;;;1.55;;
61702;SDS011;47622;47.726;3.298;2023-06-22T06:57:53;3.67;;;1.90;;
61702;SDS011;47622;47.726;3.298;2023-06-22T07:00:19;2.65;;;1.70;;
61702;SDS011;47622;47.726;3.298;2023-06-22T07:02:46;6.10;;;2.13;;
61702;SDS011;47622;47.726;3.298;2023-06-22T07:05:13;3.00;;;1.90;;
61702;SDS011;47622;47.726;3.298;2023-06-22T07:07:38;2.72;;;1.92;;
61702;SDS011;47622;47.726;3.298;2023-06-22T07:10:04;4.88;;;2.30;;
61702;SDS011;47622;47.726;3.298;2023-06-22T07:12:31;3.95;;;2.50;;
61702;SDS011;47622;47.726;3.298;2023-06-22T07:15:03;4.18;;;2.58;;
61702;SDS011;47622;47.726;3.298;2023-06-22T07:17:37;5.43;;;2.45;;
61702;SDS011;47622;47.726;3.298;2023-06-22T07:20:07;6.40;;;2.70;;
61702;SDS011;47622;47.726;3.298;2023-06-22T07:22:41;3.75;;;2.42;;
61702;SDS011;47622;47.726;3.298;2023-06-22T07:25:07;6.82;;;2.75;;
61702;SDS011;47622;47.726;3.298;2023-06-22T07:27:39;3.30;;;2.80;;
61702;SDS011;47622;47.726;3.298;2023-06-22T07:30:09;6.60;;;2.65;;
61702;SDS011;47622;47.726;3.298;2023-06-22T07:32:35;6.70;;;2.67;;
61702;SDS011;47622;47.726;3.298;2023-06-22T07:35:01;5.35;;;2.70;;
61702;SDS011;47622;47.726;3.298;2023-06-22T07:37:28;4.78;;;2.25;;
61702;SDS011;47622;47.726;3.298;2023-06-22T07:39:54;4.85;;;2.72;;
61702;SDS011;47622;47.726;3.298;2023-06-22T07:42:26;4.55;;;2.42;;
61702;SDS011;47622;47.726;3.298;2023-06-22T07:44:53;4.45;;;2.22;;
61702;SDS011;47622;47.726;3.298;2023-06-22T07:47:19;4.32;;;2.40;;
61702;SDS011;47622;47.726;3.298;2023-06-22T07:49:48;3.97;;;2.17;;
61702;SDS011;47622;47.726;3.298;2023-06-22T07:52:14;7.78;;;2.47;;
61702;SDS011;47622;47.726;3.298;2023-06-22T07:54:39;2.58;;;2.08;;
61702;SDS011;47622;47.726;3.298;2023-06-22T07:57:05;6.60;;;2.22;;
61702;SDS011;47622;47.726;3.298;2023-06-22T07:59:30;5.70;;;1.90;;
61702;SDS011;47622;47.726;3.298;2023-06-22T08:01:57;4.68;;;1.80;;
61702;SDS011;47622;47.726;3.298;2023-06-22T08:04:23;4.55;;;1.65;;
61702;SDS011;47622;47.726;3.298;2023-06-22T08:06:48;4.07;;;1.60;;
61702;SDS011;47622;47.726;3.298;2023-06-22T08:09:14;2.42;;;1.50;;
61702;SDS011;47622;47.726;3.298;2023-06-22T08:11:40;1.15;;;0.88;;
61702;SDS011;47622;47.726;3.298;2023-06-22T08:14:05;1.27;;;0.80;;
61702;SDS011;47622;47.726;3.298;2023-06-22T08:16:31;1.70;;;0.60;;
61702;SDS011;47622;47.726;3.298;2023-06-22T08:18:57;0.65;;;0.50;;
61702;SDS011;47622;47.726;3.298;2023-06-22T08:21:22;0.68;;;0.60;;
61702;SDS011;47622;47.726;3.298;2023-06-22T08:23:48;2.50;;;0.60;;
61702;SDS011;47622;47.726;3.298;2023-06-22T08:26:15;0.60;;;0.60;;
61702;SDS011;47622;47.726;3.298;2023-06-22T08:28:40;1.42;;;0.73;;
61702;SDS011;47622;47.726;3.298;2023-06-22T08:31:06;1.20;;;0.60;;
61702;SDS011;47622;47.726;3.298;2023-06-22T08:33:31;0.80;;;0.80;;
61702;SDS011;47622;47.726;3.298;2023-06-22T08:35:57;1.23;;;0.90;;
61702;SDS011;47622;47.726;3.298;2023-06-22T08:38:23;1.40;;;1.30;;
61702;SDS011;47622;47.726;3.298;2023-06-22T08:40:49;1.33;;;1.10;;
61702;SDS011;47622;47.726;3.298;2023-06-22T08:43:15;1.75;;;1.45;;
61702;SDS011;47622;47.726;3.298;2023-06-22T08:45:41;2.00;;;1.40;;
61702;SDS011;47622;47.726;3.298;2023-06-22T08:48:06;1.25;;;1.15;;
61702;SDS011;47622;47.726;3.298;2023-06-22T08:50:32;1.60;;;1.40;;
61702;SDS011;47622;47.726;3.298;2023-06-22T08:52:57;1.90;;;1.60;;
61702;SDS011;47622;47.726;3.298;2023-06-22T08:55:23;2.20;;;1.52;;
61702;SDS011;47622;47.726;3.298;2023-06-22T08:57:48;2.03;;;1.83;;
61702;SDS011;47622;47.726;3.298;2023-06-22T09:00:14;2.83;;;2.10;;
61702;SDS011;47622;47.726;3.298;2023-06-22T09:02:42;2.50;;;1.92;;
61702;SDS011;47622;47.726;3.298;2023-06-22T09:05:10;3.20;;;2.33;;
61702;SDS011;47622;47.726;3.298;2023-06-22T09:07:35;3.53;;;2.58;;
61702;SDS011;47622;47.726;3.298;2023-06-22T09:10:02;3.13;;;2.28;;
61702;SDS011;47622;47.726;3.298;2023-06-22T09:12:31;3.15;;;2.30;;
61702;SDS011;47622;47.726;3.298;2023-06-22T09:14:58;3.85;;;2.28;;
61702;SDS011;47622;47.726;3.298;2023-06-22T09:17:28;2.80;;;2.30;;
61702;SDS011;47622;47.726;3.298;2023-06-22T09:19:55;3.55;;;2.60;;
61702;SDS011;47622;47.726;3.298;2023-06-22T09:22:20;2.97;;;2.63;;
61702;SDS011;47622;47.726;3.298;2023-06-22T09:24:46;3.15;;;2.65;;
61702;SDS011;47622;47.726;3.298;2023-06-22T09:27:12;4.22;;;2.60;;
61702;SDS011;47622;47.726;3.298;2023-06-22T09:29:37;4.03;;;2.70;;
61702;SDS011;47622;47.726;3.298;2023-06-22T09:32:03;3.50;;;2.45;;
61702;SDS011;47622;47.726;3.298;2023-06-22T09:34:29;3.78;;;2.65;;
61702;SDS011;47622;47.726;3.298;2023-06-22T09:36:56;2.95;;;2.50;;
61702;SDS011;47622;47.726;3.298;2023-06-22T09:39:22;5.60;;;2.92;;
61702;SDS011;47622;47.726;3.298;2023-06-22T09:41:48;3.35;;;2.50;;
61702;SDS011;47622;47.726;3.298;2023-06-22T09:44:13;3.55;;;2.90;;
61702;SDS011;47622;47.726;3.298;2023-06-22T09:46:39;3.60;;;2.72;;
61702;SDS011;47622;47.726;3.298;2023-06-22T09:49:04;3.95;;;2.58;;
61702;SDS011;47622;47.726;3.298;2023-06-22T09:51:30;4.88;;;3.22;;
61702;SDS011;47622;47.726;3.298;2023-06-22T09:53:55;5.05;;;3.15;;
61702;SDS011;47622;47.726;3.298;2023-06-22T09:56:21;4.72;;;3.40;;
61702;SDS011;47622;47.726;3.298;2023-06-22T09:58:46;4.47;;;3.15;;
61702;SDS011;47622;47.726;3.298;2023-06-22T10:01:15;5.38;;;3.47;;
61702;SDS011;47622;47.726;3.298;2023-06-22T10:03:40;4.03;;;3.05;;
61702;SDS011;47622;47.726;3.298;2023-06-22T10:06:07;4.57;;;3.30;;
61702;SDS011;47622;47.726;3.298;2023-06-22T10:08:34;6.15;;;4.30;;
61702;SDS011;47622;47.726;3.298;2023-06-22T10:11:00;5.32;;;3.97;;
61702;SDS011;47622;47.726;3.298;2023-06-22T10:13:26;5.05;;;3.58;;
61702;SDS011;47622;47.726;3.298;2023-06-22T10:15:51;4.70;;;3.67;;
61702;SDS011;47622;47.726;3.298;2023-06-22T10:18:18;4.85;;;3.40;;
61702;SDS011;47622;47.726;3.298;2023-06-22T10:20:47;4.53;;;3.15;;
61702;SDS011;47622;47.726;3.298;2023-06-22T10:23:14;4.63;;;3.13;;
61702;SDS011;47622;47.726;3.298;2023-06-22T10:25:39;4.82;;;3.28;;
61702;SDS011;47622;47.726;3.298;2023-06-22T10:28:05;5.15;;;3.28;;
61702;SDS011;47622;47.726;3.298;2023-06-22T10:30:30;3.70;;;3.28;;
61702;SDS011;47622;47.726;3.298;2023-06-22T10:32:57;3.10;;;2.72;;
61702;SDS011;47622;47.726;3.298;2023-06-22T10:35:23;3.58;;;3.00;;
61702;SDS011;47622;47.726;3.298;2023-06-22T10:37:48;5.47;;;3.42;;
61702;SDS011;47622;47.726;3.298;2023-06-22T10:40:14;4.43;;;2.72;;
61702;SDS011;47622;47.726;3.298;2023-06-22T10:42:44;5.07;;;3.00;;
61702;SDS011;47622;47.726;3.298;2023-06-22T10:45:09;4.85;;;3.10;;
61702;SDS011;47622;47.726;3.298;2023-06-22T10:47:35;4.53;;;2.75;;
61702;SDS011;47622;47.726;3.298;2023-06-22T10:50:02;4.50;;;3.10;;
61702;SDS011;47622;47.726;3.298;2023-06-22T10:52:28;3.15;;;2.80;;
61702;SDS011;47622;47.726;3.298;2023-06-22T10:54:53;3.58;;;2.60;;
61702;SDS011;47622;47.726;3.298;2023-06-22T10:57:19;4.30;;;3.20;;
61702;SDS011;47622;47.726;3.298;2023-06-22T10:59:45;5.32;;;3.50;;
61702;SDS011;47622;47.726;3.298;2023-06-22T11:02:10;4.13;;;2.47;;
61702;SDS011;47622;47.726;3.298;2023-06-22T11:04:36;3.80;;;2.47;;
61702;SDS011;47622;47.726;3.298;2023-06-22T11:07:01;3.20;;;2.78;;
61702;SDS011;47622;47.726;3.298;2023-06-22T11:09:27;5.70;;;3.17;;
61702;SDS011;47622;47.726;3.298;2023-06-22T11:14:19;3.58;;;3.00;;
61702;SDS011;47622;47.726;3.298;2023-06-22T11:16:45;3.58;;;2.78;;
61702;SDS011;47622;47.726;3.298;2023-06-22T11:19:11;4.07;;;3.22;;
61702;SDS011;47622;47.726;3.298;2023-06-22T11:21:37;4.20;;;3.20;;
61702;SDS011;47622;47.726;3.298;2023-06-22T11:24:03;3.58;;;3.20;;
61702;SDS011;47622;47.726;3.298;2023-06-22T11:26:29;4.43;;;3.15;;
61702;SDS011;47622;47.726;3.298;2023-06-22T11:28:54;3.90;;;3.17;;
61702;SDS011;47622;47.726;3.298;2023-06-22T11:31:20;4.78;;;3.50;;
61702;SDS011;47622;47.726;3.298;2023-06-22T11:33:46;5.00;;;3.42;;
61702;SDS011;47622;47.726;3.298;2023-06-22T11:36:12;5.10;;;3.85;;
61702;SDS011;47622;47.726;3.298;2023-06-22T11:38:39;4.80;;;3.92;;
61702;SDS011;47622;47.726;3.298;2023-06-22T11:41:07;4.88;;;3.78;;
61702;SDS011;47622;47.726;3.298;2023-06-22T11:43:34;4.53;;;3.90;;
61702;SDS011;47622;47.726;3.298;2023-06-22T11:46:00;5.50;;;3.90;;
61702;SDS011;47622;47.726;3.298;2023-06-22T11:48:27;5.40;;;4.40;;
61702;SDS011;47622;47.726;3.298;2023-06-22T11:50:53;7.70;;;5.57;;
61702;SDS011;47622;47.726;3.298;2023-06-22T11:53:20;5.88;;;5.00;;
61702;SDS011;47622;47.726;3.298;2023-06-22T11:55:46;7.57;;;4.90;;
61702;SDS011;47622;47.726;3.298;2023-06-22T11:58:12;7.00;;;4.93;;
61702;SDS011;47622;47.726;3.298;2023-06-22T12:00:38;7.28;;;5.38;;
61702;SDS011;47622;47.726;3.298;2023-06-22T12:03:04;8.75;;;5.80;;
61702;SDS011;47622;47.726;3.298;2023-06-22T12:05:30;6.22;;;4.90;;
61702;SDS011;47622;47.726;3.298;2023-06-22T12:07:55;7.85;;;5.72;;
61702;SDS011;47622;47.726;3.298;2023-06-22T12:10:22;5.65;;;5.05;;
61702;SDS011;47622;47.726;3.298;2023-06-22T12:12:47;6.70;;;5.30;;
61702;SDS011;47622;47.726;3.298;2023-06-22T12:15:14;10.70;;;5.93;;
61702;SDS011;47622;47.726;3.298;2023-06-22T12:17:40;6.53;;;5.82;;
61702;SDS011;47622;47.726;3.298;2023-06-22T12:20:06;9.20;;;6.38;;
61702;SDS011;47622;47.726;3.298;2023-06-22T12:22:32;10.43;;;6.85;;
61702;SDS011;47622;47.726;3.298;2023-06-22T12:24:58;8.15;;;7.22;;
61702;SDS011;47622;47.726;3.298;2023-06-22T12:27:25;9.50;;;6.82;;
61702;SDS011;47622;47.726;3.298;2023-06-22T12:29:51;11.20;;;8.55;;
61702;SDS011;47622;47.726;3.298;2023-06-22T12:32:17;10.90;;;9.30;;
61702;SDS011;47622;47.726;3.298;2023-06-22T12:34:43;10.95;;;8.45;;
61702;SDS011;47622;47.726;3.298;2023-06-22T12:37:09;9.68;;;8.65;;
61702;SDS011;47622;47.726;3.298;2023-06-22T12:39:34;13.18;;;10.00;;
61702;SDS011;47622;47.726;3.298;2023-06-22T12:42:00;10.50;;;9.35;;
61702;SDS011;47622;47.726;3.298;2023-06-22T12:44:25;10.10;;;9.00;;
61702;SDS011;47622;47.726;3.298;2023-06-22T12:46:51;12.48;;;9.35;;
61702;SDS011;47622;47.726;3.298;2023-06-22T12:49:17;12.52;;;9.38;;
61702;SDS011;47622;47.726;3.298;2023-06-22T12:51:43;12.88;;;9.77;;
61702;SDS011;47622;47.726;3.298;2023-06-22T12:54:09;11.43;;;10.15;;
61702;SDS011;47622;47.726;3.298;2023-06-22T12:56:35;15.82;;;11.10;;
61702;SDS011;47622;47.726;3.298;2023-06-22T12:59:01;11.98;;;9.63;;
61702;SDS011;47622;47.726;3.298;2023-06-22T13:01:27;14.30;;;11.38;;
61702;SDS011;47622;47.726;3.298;2023-06-22T13:03:56;14.48;;;11.52;;
61702;SDS011;47622;47.726;3.298;2023-06-22T13:06:21;13.15;;;11.50;;
61702;SDS011;47622;47.726;3.298;2023-06-22T13:08:47;14.07;;;11.85;;
61702;SDS011;47622;47.726;3.298;2023-06-22T13:11:12;12.95;;;11.45;;
61702;SDS011;47622;47.726;3.298;2023-06-22T13:13:38;15.55;;;13.02;;
61702;SDS011;47622;47.726;3.298;2023-06-22T13:16:05;14.80;;;12.27;;
61702;SDS011;47622;47.726;3.298;2023-06-22T13:18:30;16.13;;;12.88;;
61702;SDS011;47622;47.726;3.298;2023-06-22T13:20:56;16.27;;;13.15;;
61702;SDS011;47622;47.726;3.298;2023-06-22T13:23:23;15.68;;;13.57;;
61702;SDS011;47622;47.726;3.298;2023-06-22T13:25:49;16.67;;;13.60;;
61702;SDS011;47622;47.726;3.298;2023-06-22T13:28:14;13.45;;;12.02;;
61702;SDS011;47622;47.726;3.298;2023-06-22T13:30:41;16.63;;;13.15;;
61702;SDS011;47622;47.726;3.298;2023-06-22T13:33:07;17.92;;;13.43;;
61702;SDS011;47622;47.726;3.298;2023-06-22T13:35:34;16.50;;;12.60;;
61702;SDS011;47622;47.726;3.298;2023-06-22T13:38:00;14.70;;;11.95;;
61702;SDS011;47622;47.726;3.298;2023-06-22T13:40:26;15.63;;;12.23;;
61702;SDS011;47622;47.726;3.298;2023-06-22T13:42:51;15.70;;;11.77;;
61702;SDS011;47622;47.726;3.298;2023-06-22T13:45:17;13.57;;;11.15;;
61702;SDS011;47622;47.726;3.298;2023-06-22T13:47:44;13.63;;;10.82;;
61702;SDS011;47622;47.726;3.298;2023-06-22T13:50:09;12.82;;;10.48;;
61702;SDS011;47622;47.726;3.298;2023-06-22T13:52:35;13.63;;;11.20;;
61702;SDS011;47622;47.726;3.298;2023-06-22T13:55:01;17.63;;;10.48;;
61702;SDS011;47622;47.726;3.298;2023-06-22T13:57:27;13.45;;;10.43;;
61702;SDS011;47622;47.726;3.298;2023-06-22T13:59:54;12.38;;;10.45;;
61702;SDS011;47622;47.726;3.298;2023-06-22T14:02:20;11.90;;;9.95;;
61702;SDS011;47622;47.726;3.298;2023-06-22T14:04:45;13.88;;;10.38;;
61702;SDS011;47622;47.726;3.298;2023-06-22T14:07:11;14.38;;;9.48;;
61702;SDS011;47622;47.726;3.298;2023-06-22T14:09:36;10.85;;;9.52;;
61702;SDS011;47622;47.726;3.298;2023-06-22T14:12:05;10.02;;;9.02;;
61702;SDS011;47622;47.726;3.298;2023-06-22T14:14:31;11.45;;;9.90;;
61702;SDS011;47622;47.726;3.298;2023-06-22T14:16:58;11.20;;;9.40;;
61702;SDS011;47622;47.726;3.298;2023-06-22T14:19:24;11.57;;;8.75;;
61702;SDS011;47622;47.726;3.298;2023-06-22T14:21:51;15.82;;;10.75;;
61702;SDS011;47622;47.726;3.298;2023-06-22T14:24:16;11.85;;;9.45;;
61702;SDS011;47622;47.726;3.298;2023-06-22T14:26:42;10.90;;;8.57;;
61702;SDS011;47622;47.726;3.298;2023-06-22T14:29:07;12.23;;;8.52;;
61702;SDS011;47622;47.726;3.298;2023-06-22T14:31:33;10.55;;;8.70;;
61702;SDS011;47622;47.726;3.298;2023-06-22T14:33:59;10.80;;;8.63;;
61702;SDS011;47622;47.726;3.298;2023-06-22T14:36:25;12.52;;;8.25;;
61702;SDS011;47622;47.726;3.298;2023-06-22T14:38:51;9.38;;;8.15;;
61702;SDS011;47622;47.726;3.298;2023-06-22T14:41:16;11.85;;;9.00;;
61702;SDS011;47622;47.726;3.298;2023-06-22T14:43:46;10.07;;;7.60;;
61702;SDS011;47622;47.726;3.298;2023-06-22T14:46:13;8.63;;;7.43;;
61702;SDS011;47622;47.726;3.298;2023-06-22T14:48:39;9.82;;;7.00;;
61702;SDS011;47622;47.726;3.298;2023-06-22T14:51:07;10.35;;;7.05;;